createdAt,value
2023-03-06T00:00:23.946Z,74.69
2023-03-06T00:02:52.338Z,74.51
2023-03-06T00:05:20.030Z,74.24
2023-03-06T00:07:47.624Z,74.51
2023-03-06T00:10:16.919Z,73.97
2023-03-06T00:12:44.495Z,74.12
2023-03-06T00:15:12.882Z,74.39
2023-03-06T00:17:41.768Z,74.58
2023-03-06T00:20:13.325Z,74.64
2023-03-06T00:22:44.196Z,75.25
2023-03-06T00:25:13.837Z,74.68
2023-03-06T00:27:42.321Z,74.89
2023-03-06T00:30:12.100Z,74.36
2023-03-06T00:32:41.051Z,74.44
2023-03-06T00:35:09.446Z,74.66
2023-03-06T00:37:37.158Z,74.22
2023-03-06T00:40:05.958Z,73.82
2023-03-06T00:42:33.373Z,74.06
2023-03-06T00:45:00.798Z,74.26
2023-03-06T00:47:28.450Z,73.95
2023-03-06T00:49:57.235Z,73.88
2023-03-06T00:52:24.648Z,73.68
2023-03-06T00:54:52.321Z,73.96
2023-03-06T00:57:19.849Z,74.37
2023-03-06T00:59:47.357Z,74.51
2023-03-06T01:02:15.135Z,73.85
2023-03-06T01:04:42.686Z,73.82
2023-03-06T01:07:12.463Z,73.96
2023-03-06T01:09:39.954Z,73.82
2023-03-06T01:12:08.221Z,73.74
2023-03-06T01:14:35.752Z,74.05
2023-03-06T01:17:03.311Z,74.21
2023-03-06T01:19:30.838Z,74.46
2023-03-06T01:21:58.318Z,74.67
2023-03-06T01:24:28.410Z,74.75
2023-03-06T01:26:57.303Z,74.04
2023-03-06T01:29:26.290Z,74.46
2023-03-06T01:31:53.713Z,74.67
2023-03-06T01:34:21.299Z,74.95
2023-03-06T01:36:48.804Z,75.09
2023-03-06T01:39:16.316Z,75.26
2023-03-06T01:41:45.094Z,74.53
2023-03-06T01:44:13.718Z,74.15
2023-03-06T01:46:42.331Z,75.03
2023-03-06T01:49:16.782Z,75.09
2023-03-06T01:51:49.805Z,74.32
2023-03-06T01:54:22.701Z,74.04
2023-03-06T01:56:56.694Z,74.31
2023-03-06T01:59:26.898Z,74.45
2023-03-06T02:01:56.039Z,74.36
2023-03-06T02:04:23.911Z,73.90
2023-03-06T02:06:52.195Z,74.16
2023-03-06T02:09:19.750Z,74.76
2023-03-06T02:11:47.269Z,74.16
2023-03-06T02:14:17.426Z,74.75
2023-03-06T02:16:45.145Z,74.86
2023-03-06T02:19:26.218Z,75.03
2023-03-06T02:21:53.780Z,75.26
2023-03-06T02:24:34.204Z,74.67
2023-03-06T02:27:04.670Z,75.13
2023-03-06T02:29:32.339Z,74.64
2023-03-06T02:32:03.197Z,74.85
2023-03-06T02:34:53.792Z,74.71
2023-03-06T02:37:22.884Z,74.91
2023-03-06T02:39:55.091Z,75.13
2023-03-06T02:42:26.555Z,74.65
2023-03-06T02:44:55.970Z,75.29
2023-03-06T02:47:23.471Z,75.73
2023-03-06T02:49:50.980Z,75.44
2023-03-06T02:52:18.788Z,75.07
2023-03-06T02:54:46.314Z,75.55
2023-03-06T02:57:13.864Z,75.38
2023-03-06T02:59:43.312Z,75.49
2023-03-06T03:02:11.231Z,75.18
2023-03-06T03:04:39.008Z,75.53
2023-03-06T03:07:08.248Z,75.54
2023-03-06T03:09:37.263Z,75.15
2023-03-06T03:12:06.596Z,75.00
2023-03-06T03:14:34.763Z,75.85
2023-03-06T03:17:05.462Z,76.32
2023-03-06T03:19:33.083Z,75.64
2023-03-06T03:22:00.631Z,75.75
2023-03-06T03:24:28.126Z,75.95
2023-03-06T03:26:56.023Z,76.35
2023-03-06T03:29:24.911Z,76.91
2023-03-06T03:31:53.552Z,76.47
2023-03-06T03:34:26.525Z,76.24
2023-03-06T03:36:54.566Z,75.80
2023-03-06T03:39:22.578Z,76.12
2023-03-06T03:41:50.307Z,76.04
2023-03-06T03:44:17.740Z,76.20
2023-03-06T03:46:45.727Z,76.74
2023-03-06T03:49:18.531Z,76.40
2023-03-06T03:51:47.313Z,76.34
2023-03-06T03:54:14.911Z,76.98
2023-03-06T03:56:46.060Z,76.92
2023-03-06T03:59:19.515Z,77.24
2023-03-06T04:01:58.204Z,77.37
2023-03-06T04:04:26.639Z,77.35
2023-03-06T04:06:55.611Z,78.28
2023-03-06T04:09:23.352Z,77.75
2023-03-06T04:11:51.077Z,77.32
2023-03-06T04:14:18.799Z,78.02
2023-03-06T04:16:46.314Z,78.29
2023-03-06T04:19:14.250Z,78.36
2023-03-06T04:21:41.740Z,78.09
2023-03-06T04:24:11.264Z,77.33
2023-03-06T04:26:38.845Z,77.26
2023-03-06T04:29:06.924Z,77.07
2023-03-06T04:31:34.661Z,77.62
2023-03-06T04:34:02.147Z,77.90
2023-03-06T04:36:31.164Z,77.79
2023-03-06T04:39:03.348Z,77.85
2023-03-06T04:41:34.451Z,78.05
2023-03-06T04:44:02.320Z,78.26
2023-03-06T04:46:29.816Z,78.33
2023-03-06T04:48:57.302Z,78.59
2023-03-06T04:51:25.357Z,77.81
2023-03-06T04:53:52.756Z,77.87
2023-03-06T04:56:20.151Z,77.94
2023-03-06T04:58:49.069Z,78.68
2023-03-06T05:01:16.614Z,78.04
2023-03-06T05:03:44.189Z,78.33
2023-03-06T05:06:11.603Z,78.23
2023-03-06T05:08:39.233Z,78.00
2023-03-06T05:11:07.051Z,77.89
2023-03-06T05:13:34.617Z,77.45
2023-03-06T05:16:04.709Z,77.75
2023-03-06T05:18:32.963Z,77.64
2023-03-06T05:21:00.549Z,76.92
2023-03-06T05:23:29.131Z,76.80
2023-03-06T05:25:56.875Z,76.74
2023-03-06T05:28:25.839Z,76.60
2023-03-06T05:30:53.280Z,76.56
2023-03-06T05:33:22.038Z,76.65
2023-03-06T05:35:49.729Z,76.51
2023-03-06T05:38:17.429Z,77.00
2023-03-06T05:40:45.544Z,76.96
2023-03-06T05:43:13.030Z,76.41
2023-03-06T05:45:40.744Z,76.71
2023-03-06T05:48:09.003Z,76.38
2023-03-06T05:50:38.543Z,76.64
2023-03-06T05:53:06.368Z,76.66
2023-03-06T05:55:33.847Z,76.56
2023-03-06T05:58:01.237Z,77.11
2023-03-06T06:00:28.736Z,76.96
2023-03-06T06:02:56.115Z,77.35
2023-03-06T06:05:23.495Z,76.31
2023-03-06T06:07:52.352Z,77.27
2023-03-06T06:10:20.005Z,77.57
2023-03-06T06:12:47.532Z,77.73
2023-03-06T06:15:15.416Z,77.43
2023-03-06T06:17:42.957Z,76.83
2023-03-06T06:20:11.631Z,77.10
2023-03-06T06:22:39.064Z,77.09
2023-03-06T06:25:08.863Z,76.55
2023-03-06T06:27:36.339Z,76.74
2023-03-06T06:30:04.895Z,76.18
2023-03-06T06:32:32.479Z,75.41
2023-03-06T06:34:59.908Z,76.18
2023-03-06T06:37:27.330Z,75.79
2023-03-06T06:39:54.849Z,75.51
2023-03-06T06:42:33.178Z,76.19
2023-03-06T06:45:03.076Z,75.93
2023-03-06T06:47:31.099Z,75.88
2023-03-06T06:49:58.659Z,75.40
2023-03-06T06:52:26.300Z,75.29
2023-03-06T06:54:54.138Z,75.72
2023-03-06T06:57:22.918Z,75.20
2023-03-06T06:59:52.553Z,75.25
2023-03-06T07:02:21.017Z,74.34
2023-03-06T07:05:02.482Z,73.87
2023-03-06T07:07:31.497Z,73.09
2023-03-06T07:09:58.918Z,73.23
2023-03-06T07:12:27.784Z,72.27
2023-03-06T07:14:55.564Z,72.77
2023-03-06T07:17:23.053Z,72.71
2023-03-06T07:19:50.628Z,72.63
2023-03-06T07:22:18.244Z,72.59
2023-03-06T07:24:45.737Z,72.88
2023-03-06T07:27:13.304Z,72.87
2023-03-06T07:29:44.068Z,72.87
2023-03-06T07:32:11.776Z,72.63
2023-03-06T07:34:39.488Z,72.02
2023-03-06T07:37:07.019Z,71.46
2023-03-06T07:39:34.896Z,70.60
2023-03-06T07:42:02.453Z,70.76
2023-03-06T07:44:29.986Z,70.28
2023-03-06T07:46:58.790Z,70.42
2023-03-06T07:49:26.371Z,70.13
2023-03-06T07:51:53.837Z,69.54
2023-03-06T07:54:21.242Z,69.15
2023-03-06T07:56:50.324Z,69.80
2023-03-06T07:59:17.906Z,69.25
2023-03-06T08:01:45.566Z,69.66
2023-03-06T08:04:14.457Z,68.81
2023-03-06T08:06:42.011Z,69.09
2023-03-06T08:09:09.376Z,68.93
2023-03-06T08:11:36.820Z,68.85
2023-03-06T08:14:04.962Z,68.78
2023-03-06T08:16:32.445Z,68.63
2023-03-06T08:18:59.915Z,68.19
2023-03-06T08:21:28.860Z,68.38
2023-03-06T08:23:56.683Z,67.35
2023-03-06T08:26:26.523Z,67.11
2023-03-06T08:28:54.898Z,67.62
2023-03-06T08:31:27.453Z,67.32
2023-03-06T08:33:55.838Z,66.76
2023-03-06T08:36:23.934Z,65.83
2023-03-06T08:38:52.976Z,65.82
2023-03-06T08:41:21.085Z,66.39
2023-03-06T08:43:49.218Z,66.08
2023-03-06T08:46:18.790Z,65.27
2023-03-06T08:48:47.849Z,65.13
2023-03-06T08:51:16.467Z,65.67
2023-03-06T08:53:44.695Z,66.42
2023-03-06T08:56:18.772Z,66.24
2023-03-06T08:58:46.528Z,66.76
2023-03-06T09:01:15.185Z,66.88
2023-03-06T09:03:42.962Z,67.09
2023-03-06T09:06:10.776Z,66.97
2023-03-06T09:08:38.568Z,67.31
2023-03-06T09:11:06.002Z,67.13
2023-03-06T09:13:34.856Z,67.25
2023-03-06T09:16:02.270Z,66.53
2023-03-06T09:18:29.716Z,65.91
2023-03-06T09:20:57.200Z,64.60
2023-03-06T09:23:24.720Z,64.07
2023-03-06T09:25:53.016Z,63.85
2023-03-06T09:28:20.836Z,62.08
2023-03-06T09:30:50.317Z,61.94
2023-03-06T09:33:18.489Z,62.67
2023-03-06T09:35:50.853Z,61.62
2023-03-06T09:38:18.361Z,60.66
2023-03-06T09:41:01.691Z,61.19
2023-03-06T09:43:31.550Z,58.48
2023-03-06T09:46:00.311Z,59.59
2023-03-06T09:48:37.115Z,59.93
2023-03-06T09:51:12.283Z,59.32
2023-03-06T09:53:55.408Z,58.52
2023-03-06T09:56:30.969Z,59.54
2023-03-06T09:59:06.455Z,56.84
2023-03-06T10:01:40.046Z,55.43
2023-03-06T10:04:19.573Z,56.37
2023-03-06T10:06:49.546Z,55.74
2023-03-06T10:09:20.529Z,56.15
2023-03-06T10:11:52.891Z,56.38
2023-03-06T10:14:26.516Z,57.10
2023-03-06T10:16:56.106Z,57.28
2023-03-06T10:19:34.416Z,57.49
2023-03-06T10:22:07.152Z,57.89
2023-03-06T10:24:49.617Z,57.48
2023-03-06T10:27:28.815Z,57.33
2023-03-06T10:30:03.856Z,58.27
2023-03-06T10:32:48.659Z,57.49
2023-03-06T10:35:19.702Z,57.64
2023-03-06T10:37:47.977Z,59.34
2023-03-06T10:40:18.166Z,60.05
2023-03-06T10:42:45.641Z,59.64
2023-03-06T10:45:15.302Z,61.41
2023-03-06T10:47:44.151Z,61.85
2023-03-06T10:50:24.957Z,63.85
2023-03-06T10:53:00.378Z,64.81
2023-03-06T10:55:30.462Z,65.38
2023-03-06T10:57:58.128Z,68.17
2023-03-06T11:00:31.477Z,69.67
2023-03-06T11:03:22.978Z,71.82
2023-03-06T11:05:57.014Z,73.20
2023-03-06T11:08:24.523Z,74.23
2023-03-06T11:10:57.912Z,75.51
2023-03-06T11:13:27.578Z,75.35
2023-03-06T11:15:58.167Z,75.31
2023-03-06T11:18:34.736Z,74.10
2023-03-06T11:21:07.144Z,74.87
2023-03-06T11:23:41.096Z,74.00
2023-03-06T11:26:24.897Z,73.21
2023-03-06T11:29:02.918Z,73.34
2023-03-06T11:31:33.390Z,73.82
2023-03-06T11:34:09.021Z,73.84
2023-03-06T11:36:40.031Z,74.39
2023-03-06T11:39:22.672Z,75.38
2023-03-06T11:41:58.220Z,75.22
2023-03-06T11:44:34.563Z,75.60
2023-03-06T11:47:10.950Z,75.21
2023-03-06T11:49:44.702Z,75.55
2023-03-06T11:52:18.339Z,74.83
2023-03-06T11:54:50.793Z,74.58
2023-03-06T11:57:22.192Z,74.91
2023-03-06T12:00:01.026Z,74.72
2023-03-06T12:02:40.851Z,73.42
2023-03-06T12:05:29.111Z,73.38
2023-03-06T12:08:07.761Z,73.86
2023-03-06T12:10:41.435Z,72.56
2023-03-06T12:13:27.768Z,72.89
2023-03-06T12:16:10.157Z,72.83
2023-03-06T12:18:47.851Z,72.76
2023-03-06T12:21:27.212Z,71.08
2023-03-06T12:24:12.682Z,71.35
2023-03-06T12:26:57.971Z,70.65
2023-03-06T12:29:40.305Z,70.83
2023-03-06T12:32:16.894Z,68.47
2023-03-06T12:34:59.249Z,69.84
2023-03-06T12:37:39.529Z,67.50
2023-03-06T12:40:38.814Z,67.24
2023-03-06T12:43:28.520Z,67.34
2023-03-06T12:45:59.232Z,67.21
2023-03-06T12:48:33.746Z,65.29
2023-03-06T12:51:01.952Z,64.49
2023-03-06T12:53:32.875Z,64.69
2023-03-06T12:56:02.614Z,66.00
2023-03-06T12:58:51.957Z,62.64
2023-03-06T13:01:41.092Z,61.34
2023-03-06T13:04:27.567Z,61.64
2023-03-06T13:07:09.804Z,61.55
2023-03-06T13:09:55.470Z,60.74
2023-03-06T13:12:36.548Z,62.55
2023-03-06T13:15:27.354Z,60.92
2023-03-06T13:17:54.939Z,60.98
2023-03-06T13:20:34.865Z,60.83
2023-03-06T13:23:42.581Z,60.41
2023-03-06T13:26:49.947Z,60.07
2023-03-06T13:29:58.953Z,58.40
2023-03-06T13:32:32.415Z,60.21
2023-03-06T13:35:00.138Z,61.25
2023-03-06T13:37:47.735Z,61.15
2023-03-06T13:40:27.162Z,61.36
2023-03-06T13:43:21.345Z,60.07
2023-03-06T13:45:50.099Z,59.50
2023-03-06T13:48:42.990Z,60.45
2023-03-06T13:51:22.832Z,59.48
2023-03-06T13:54:25.821Z,60.37
2023-03-06T13:57:29.968Z,61.47
2023-03-06T14:00:20.460Z,60.37
2023-03-06T14:03:07.730Z,62.02
2023-03-06T14:05:43.343Z,62.36
2023-03-06T14:08:14.550Z,60.76
2023-03-06T14:10:43.371Z,61.55
2023-03-06T14:13:18.346Z,59.50
2023-03-06T14:15:50.570Z,60.00
2023-03-06T14:18:23.905Z,59.92
2023-03-06T14:20:56.650Z,57.08
2023-03-06T14:23:28.201Z,56.64
2023-03-06T14:26:02.386Z,58.18
2023-03-06T14:28:31.395Z,57.44
2023-03-06T14:31:02.819Z,59.64
2023-03-06T14:33:33.421Z,58.01
2023-03-06T14:36:03.383Z,58.28
2023-03-06T14:38:36.251Z,58.65
2023-03-06T14:41:05.524Z,61.11
2023-03-06T14:43:33.355Z,60.79
2023-03-06T14:46:04.161Z,60.51
2023-03-06T14:48:41.316Z,60.15
2023-03-06T14:51:16.009Z,61.09
2023-03-06T14:53:45.194Z,59.98
2023-03-06T14:56:17.043Z,61.82
2023-03-06T14:58:52.661Z,60.56
2023-03-06T15:01:31.464Z,60.31
2023-03-06T15:04:00.944Z,60.38
2023-03-06T15:06:33.968Z,59.63
2023-03-06T15:09:07.627Z,60.10
2023-03-06T15:11:52.291Z,59.71
2023-03-06T15:14:27.132Z,60.41
2023-03-06T15:16:55.876Z,59.66
2023-03-06T15:19:23.347Z,60.81
2023-03-06T15:21:52.054Z,60.41
2023-03-06T15:24:33.259Z,60.98
2023-03-06T15:27:02.931Z,60.15
2023-03-06T15:29:30.661Z,60.29
2023-03-06T15:32:31.091Z,57.27
2023-03-06T15:35:27.615Z,62.55
2023-03-06T15:37:55.557Z,63.72
2023-03-06T15:40:24.733Z,64.30
2023-03-06T15:42:52.080Z,63.74
2023-03-06T15:45:21.898Z,63.84
2023-03-06T15:47:53.550Z,64.00
2023-03-06T15:50:23.304Z,63.12
2023-03-06T15:52:51.052Z,63.20
2023-03-06T15:55:20.961Z,63.61
2023-03-06T15:57:51.627Z,63.68
2023-03-06T16:00:52.988Z,62.79
2023-03-06T16:03:22.168Z,62.54
2023-03-06T16:05:49.630Z,63.24
2023-03-06T16:08:17.129Z,59.21
2023-03-06T16:10:45.675Z,58.34
2023-03-06T16:13:17.269Z,58.56
2023-03-06T16:15:47.589Z,56.34
2023-03-06T16:18:15.511Z,57.49
2023-03-06T16:20:44.709Z,55.87
2023-03-06T16:23:12.613Z,56.43
2023-03-06T16:25:42.099Z,56.34
2023-03-06T16:28:12.443Z,56.98
2023-03-06T16:30:41.924Z,56.58
2023-03-06T16:33:10.766Z,56.20
2023-03-06T16:35:38.653Z,57.37
2023-03-06T16:38:07.680Z,56.61
2023-03-06T16:40:41.351Z,57.32
2023-03-06T16:43:10.378Z,56.51
2023-03-06T16:45:39.583Z,56.34
2023-03-06T16:48:07.214Z,56.98
2023-03-06T16:50:38.516Z,57.26
2023-03-06T16:53:08.080Z,58.63
2023-03-06T16:55:35.686Z,58.00
2023-03-06T16:58:03.303Z,58.96
2023-03-06T17:00:33.121Z,58.01
2023-03-06T17:03:01.584Z,58.41
2023-03-06T17:05:29.399Z,58.07
2023-03-06T17:07:56.823Z,58.74
2023-03-06T17:10:27.162Z,58.95
2023-03-06T17:12:55.830Z,59.23
2023-03-06T17:15:23.430Z,58.65
2023-03-06T17:17:51.668Z,59.50
2023-03-06T17:20:20.260Z,59.69
2023-03-06T17:22:47.906Z,59.55
2023-03-06T17:25:15.422Z,60.86
2023-03-06T17:27:44.228Z,60.03
2023-03-06T17:30:12.641Z,60.53
2023-03-06T17:32:41.013Z,60.10
2023-03-06T17:35:09.578Z,60.71
2023-03-06T17:37:37.065Z,60.74
2023-03-06T17:40:08.357Z,60.31
2023-03-06T17:42:35.928Z,60.61
2023-03-06T17:45:09.075Z,61.19
2023-03-06T17:47:36.504Z,60.52
2023-03-06T17:50:04.704Z,61.01
2023-03-06T17:52:33.344Z,61.18
2023-03-06T17:55:00.779Z,60.85
2023-03-06T17:57:28.262Z,61.18
2023-03-06T17:59:56.342Z,61.35
2023-03-06T18:02:25.119Z,61.70
2023-03-06T18:04:52.636Z,61.64
2023-03-06T18:07:20.091Z,61.09
2023-03-06T18:09:47.645Z,61.61
2023-03-06T18:12:16.065Z,61.88
2023-03-06T18:14:43.565Z,62.17
2023-03-06T18:17:11.098Z,62.40
2023-03-06T18:19:41.253Z,62.42
2023-03-06T18:22:08.745Z,62.72
2023-03-06T18:24:36.859Z,63.18
2023-03-06T18:27:04.414Z,63.13
2023-03-06T18:29:31.872Z,63.29
2023-03-06T18:31:59.486Z,63.27
2023-03-06T18:34:27.154Z,63.25
2023-03-06T18:36:55.943Z,63.86
2023-03-06T18:39:23.479Z,63.79
2023-03-06T18:41:51.734Z,64.01
2023-03-06T18:44:19.350Z,64.78
2023-03-06T18:46:47.070Z,63.98
2023-03-06T18:49:16.199Z,64.23
2023-03-06T18:51:43.701Z,64.21
2023-03-06T18:54:12.580Z,64.74
2023-03-06T18:56:44.052Z,64.95
2023-03-06T18:59:16.086Z,65.04
2023-03-06T19:01:45.123Z,65.16
2023-03-06T19:04:12.705Z,65.38
2023-03-06T19:06:41.233Z,65.20
2023-03-06T19:09:09.315Z,65.10
2023-03-06T19:11:38.367Z,65.22
2023-03-06T19:14:06.704Z,65.16
2023-03-06T19:19:51.598Z,65.00
2023-03-06T19:22:19.062Z,64.88
2023-03-06T19:24:48.060Z,65.34
2023-03-06T19:27:16.996Z,65.45
2023-03-06T19:29:44.836Z,65.42
2023-03-06T19:32:15.793Z,65.46
2023-03-06T19:35:24.140Z,65.46
2023-03-06T19:38:33.263Z,65.50
2023-03-06T19:41:01.029Z,65.05
2023-03-06T19:43:30.685Z,65.30
2023-03-06T19:45:58.320Z,65.34
2023-03-06T19:48:26.765Z,65.74
2023-03-06T19:50:54.235Z,65.86
2023-03-06T19:53:23.060Z,66.09
2023-03-06T19:55:50.629Z,66.15
2023-03-06T19:58:18.075Z,66.48
2023-03-06T20:00:46.868Z,66.38
2023-03-06T20:03:14.343Z,66.79
2023-03-06T20:05:46.154Z,66.78
2023-03-06T20:08:13.638Z,67.14
2023-03-06T20:10:41.400Z,67.20
2023-03-06T20:13:08.897Z,67.02
2023-03-06T20:15:36.882Z,67.05
2023-03-06T20:18:06.347Z,66.84
2023-03-06T20:20:33.951Z,67.03
2023-03-06T20:23:04.401Z,66.83
2023-03-06T20:25:36.678Z,66.85
2023-03-06T20:28:04.441Z,66.85
2023-03-06T20:30:38.082Z,66.85
2023-03-06T20:33:07.353Z,66.85
2023-03-06T20:35:35.352Z,66.81
2023-03-06T20:38:03.242Z,66.74
2023-03-06T20:40:30.669Z,66.69
2023-03-06T20:42:58.136Z,66.86
2023-03-06T20:45:25.519Z,66.45
2023-03-06T20:47:56.136Z,66.76
2023-03-06T20:50:25.989Z,67.50
2023-03-06T20:52:53.737Z,67.28
2023-03-06T20:55:21.296Z,66.95
2023-03-06T20:57:49.789Z,67.08
2023-03-06T21:00:19.019Z,66.71
2023-03-06T21:02:46.483Z,66.59
2023-03-06T21:05:14.251Z,66.54
2023-03-06T21:07:43.111Z,67.15
2023-03-06T21:10:11.564Z,67.00
2023-03-06T21:12:39.055Z,67.02
2023-03-06T21:15:08.045Z,67.24
2023-03-06T21:17:35.524Z,67.51
2023-03-06T21:20:05.371Z,68.09
2023-03-06T21:22:32.855Z,67.97
2023-03-06T21:25:01.649Z,68.17
2023-03-06T21:27:29.101Z,68.20
2023-03-06T21:29:56.849Z,68.46
2023-03-06T21:32:24.262Z,68.16
2023-03-06T21:34:51.719Z,68.33
2023-03-06T21:37:19.181Z,68.39
2023-03-06T21:39:46.633Z,67.55
2023-03-06T21:42:15.611Z,67.42
2023-03-06T21:44:43.089Z,67.48
2023-03-06T21:47:10.491Z,67.37
2023-03-06T21:49:38.050Z,67.69
2023-03-06T21:52:05.676Z,67.88
2023-03-06T21:54:33.179Z,67.48
2023-03-06T21:57:00.674Z,67.46
2023-03-06T21:59:29.541Z,67.53
2023-03-06T22:01:57.163Z,67.28
2023-03-06T22:04:24.821Z,67.50
2023-03-06T22:06:52.197Z,67.05
2023-03-06T22:09:20.014Z,67.29
2023-03-06T22:11:47.942Z,67.55
2023-03-06T22:14:15.726Z,66.72
2023-03-06T22:16:44.657Z,66.37
2023-03-06T22:19:12.497Z,66.41
2023-03-06T22:21:40.030Z,66.39
2023-03-06T22:24:07.584Z,65.44
2023-03-06T22:26:34.995Z,65.54
2023-03-06T22:29:02.517Z,65.05
2023-03-06T22:31:30.316Z,65.03
2023-03-06T22:34:00.767Z,64.57
2023-03-06T22:36:30.624Z,64.51
2023-03-06T22:39:00.783Z,64.04
2023-03-06T22:41:28.926Z,64.26
2023-03-06T22:44:02.193Z,64.51
2023-03-06T22:46:30.427Z,63.97
2023-03-06T22:49:00.452Z,64.27
2023-03-06T22:51:29.391Z,63.56
2023-03-06T22:53:56.899Z,63.77
2023-03-06T22:56:24.577Z,63.65
2023-03-06T22:58:52.137Z,64.20
2023-03-06T23:01:21.674Z,63.88
2023-03-06T23:03:50.993Z,64.30
2023-03-06T23:06:20.700Z,64.00
2023-03-06T23:08:50.121Z,64.33
2023-03-06T23:11:18.206Z,64.44
2023-03-06T23:14:05.784Z,64.50
2023-03-06T23:16:52.011Z,64.09
2023-03-06T23:19:38.056Z,64.62
2023-03-06T23:22:25.542Z,64.83
2023-03-06T23:25:11.642Z,64.53
2023-03-06T23:27:39.267Z,64.42
2023-03-06T23:30:09.089Z,64.02
2023-03-06T23:32:36.685Z,63.48
2023-03-06T23:35:04.651Z,63.74
2023-03-06T23:37:33.681Z,63.44
2023-03-06T23:40:01.709Z,63.02
2023-03-06T23:42:29.330Z,62.77
2023-03-06T23:44:56.713Z,62.26
2023-03-06T23:47:24.277Z,62.24
2023-03-06T23:49:51.794Z,62.20
2023-03-06T23:52:19.382Z,62.48
2023-03-06T23:54:52.698Z,62.38
2023-03-06T23:57:20.254Z,62.32
2023-03-06T23:59:47.811Z,62.45
